Terminal Aerodrome Forecast
Issued by NWS

Home | Current Version | Previous Version | Text Only | Print | Product List | Glossary On
Versions: 1 2 3 4 5 6 7 8 9 10 11 12 13 14 15 16 17 18
373
FTUS43 KDVN 121730
TAFCID
TAF
KCID 121730Z 1218/1318 32020G28KT P6SM SCT030
     FM130100 33015KT P6SM SKC
     FM130400 32009KT P6SM SCT250=

USA.gov is the U.S. government's official web portal to all federal, state and local government web resources and services.